Meteorología y climatología de Navarra
Datos de la estación - Meteo Navarra

Estación de Arangoiti GN

Altitud 1353 m.


Datos desde el 14/08/2019 hasta el 15/08/2019 en horario solar
Los datos son PROVISIONALES

Anterior Página 1 de 1 Siguiente Descargar: Formato para Excel 2000 o superior   Formato csv   Formato para OpenOffice Calc
Fecha Temperatura Humedad relativa Radiación global Insolación Precipitación Vel. viento 10 m Vel. viento 10 m Dir. viento 10 m
ºC % W/m² s l/m² m/s km/h º
14/08/2019 0:00 11.8 53 0.0 0 0.0 9.8 35.1 22
14/08/2019 0:10 11.5 51 0.0 0 0.0 9.5 34.0 22
14/08/2019 0:20 11.6 51 0.0 0 0.0 9.0 32.3 20
14/08/2019 0:30 11.2 50 0.0 0 0.0 8.7 31.4 18
14/08/2019 0:40 11.7 49 0.0 0 0.0 8.3 29.7 15
14/08/2019 0:50 11.7 50 0.0 0 0.0 8.4 30.4 15
14/08/2019 1:00 11.4 50 0.0 0 0.0 8.0 28.8 13
14/08/2019 1:10 11.6 49 0.0 0 0.0 7.8 28.2 14
14/08/2019 1:20 11.8 49 0.0 0 0.0 7.9 28.4 12
14/08/2019 1:30 11.9 48 0.0 0 0.0 7.3 26.1 12
14/08/2019 1:40 11.7 48 0.0 0 0.0 6.4 23.0 9
14/08/2019 1:50 12.4 45 0.0 0 0.0 6.3 22.7 8
14/08/2019 2:00 12.4 45 0.0 0 0.0 5.4 19.5 8
14/08/2019 2:10 12.9 44 0.0 0 0.0 5.0 17.8 3
14/08/2019 2:20 12.7 43 0.0 0 0.0 5.3 19.1 3
14/08/2019 2:30 12.5 42 0.0 0 0.0 5.6 20.1 3
14/08/2019 2:40 12.7 41 0.0 0 0.0 5.4 19.5 3
14/08/2019 2:50 12.8 42 0.0 0 0.0 5.1 18.4 6
14/08/2019 3:00 13.3 40 0.0 0 0.0 4.7 17.1 6
14/08/2019 3:10 13.3 40 0.0 0 0.0 4.3 15.6 4
14/08/2019 3:20 13.1 39 0.0 0 0.0 4.1 14.8 3
14/08/2019 3:30 13.1 37 0.0 0 0.0 4.3 15.6 0
14/08/2019 3:40 12.7 39 0.0 0 0.0 4.3 15.4 0
14/08/2019 3:50 13.3 36 0.0 0 0.0 4.9 17.5 0
14/08/2019 4:00 13.6 37 0.0 0 0.0 5.1 18.5 356
14/08/2019 4:10 13.2 36 0.0 0 0.0 5.1 18.2 352
14/08/2019 4:20 12.9 38 0.0 0 0.0 5.3 19.0 351
14/08/2019 4:30 13.0 38 0.0 0 0.0 5.4 19.3 351
14/08/2019 4:40 12.7 39 0.0 0 0.0 5.4 19.3 347
14/08/2019 4:50 13.0 40 0.0 0 0.0 5.8 21.0 348
14/08/2019 5:00 12.8 39 0.0 0 0.0 6.2 22.4 351
14/08/2019 5:10 12.7 39 0.0 0 0.0 6.7 23.9 353
14/08/2019 5:20 12.9 40 8.7 0 0.0 6.6 23.6 353
14/08/2019 5:30 12.5 40 34.0 412 0.0 6.5 23.5 353
14/08/2019 5:40 13.0 41 53.0 600 0.0 6.5 23.5 352
14/08/2019 5:50 12.6 41 72.2 600 0.0 6.6 23.6 348
14/08/2019 6:00 12.9 40 99.3 600 0.0 6.8 24.4 347
14/08/2019 6:10 13.5 40 123.3 600 0.0 5.4 19.5 342
14/08/2019 6:20 13.5 39 159.6 600 0.0 5.7 20.4 341
14/08/2019 6:30 13.2 39 189.3 600 0.0 5.7 20.5 345
14/08/2019 6:40 13.6 39 218.8 600 0.0 4.9 17.6 343
14/08/2019 6:50 14.4 39 252.5 600 0.0 5.1 18.4 344
14/08/2019 7:00 14.1 39 284.4 600 0.0 4.6 16.4 340
14/08/2019 7:10 14.6 38 317.0 600 0.0 4.6 16.7 342
14/08/2019 7:20 14.1 38 350.5 600 0.0 4.4 15.7 351
14/08/2019 7:30 14.5 37 383.0 600 0.0 3.9 14.2 353
14/08/2019 7:40 14.8 38 414.9 600 0.0 4.0 14.3 350
14/08/2019 7:50 14.9 38 446.8 600 0.0 4.3 15.6 353
14/08/2019 8:00 15.5 35 477.8 600 0.0 4.3 15.6 347
14/08/2019 8:10 15.7 29 508.8 600 0.0 4.4 15.9 344
14/08/2019 8:20 16.0 29 538.7 600 0.0 4.3 15.4 341
14/08/2019 8:30 15.8 33 567.4 600 0.0 4.8 17.4 343
14/08/2019 8:40 16.2 35 596.3 600 0.0 4.8 17.4 340
14/08/2019 8:50 15.5 36 624.7 600 0.0 4.3 15.6 342
14/08/2019 9:00 15.8 35 651.9 600 0.0 4.3 15.6 346
14/08/2019 9:10 15.6 36 679.2 600 0.0 4.5 16.2 347
14/08/2019 9:20 16.1 34 705.3 600 0.0 4.6 16.6 349
14/08/2019 9:30 16.0 32 728.9 600 0.0 5.2 18.8 346
14/08/2019 9:40 16.1 31 752.2 600 0.0 4.9 17.5 347
14/08/2019 9:50 16.5 30 779.9 600 0.0 4.4 15.9 350
14/08/2019 10:00 16.1 35 809.0 600 0.0 4.7 17.0 348
14/08/2019 10:10 16.5 34 593.6 424 0.0 4.3 15.3 347
14/08/2019 10:20 16.9 31 652.8 458 0.0 4.3 15.4 351
14/08/2019 10:30 17.6 24 852.0 600 0.0 4.6 16.5 356
14/08/2019 10:40 17.8 29 869.0 600 0.0 4.8 17.3 3
14/08/2019 10:50 17.8 34 886.0 600 0.0 5.4 19.4 0
14/08/2019 11:00 17.6 36 899.0 600 0.0 6.3 22.8 358
14/08/2019 11:10 17.8 39 911.0 600 0.0 7.4 26.6 349
14/08/2019 11:20 18.7 40 918.0 600 0.0 6.8 24.6 347
14/08/2019 11:30 18.2 41 927.0 600 0.0 7.4 26.6 350
14/08/2019 11:40 18.8 40 934.0 600 0.0 8.0 28.9 352
14/08/2019 11:50 19.0 38 938.0 600 0.0 8.7 31.3 351
14/08/2019 12:00 19.2 38 939.0 600 0.0 9.5 34.1 352
14/08/2019 12:10 19.1 39 938.0 600 0.0 9.2 33.3 352
14/08/2019 12:20 19.2 41 938.0 600 0.0 9.2 33.2 351
14/08/2019 12:30 19.9 40 934.0 600 0.0 7.3 26.4 346
14/08/2019 12:40 19.7 40 931.0 600 0.0 7.3 26.3 343
14/08/2019 12:50 20.4 39 925.0 600 0.0 5.6 20.2 2
14/08/2019 13:00 20.3 39 915.0 600 0.0 6.1 21.9 340
14/08/2019 13:10 20.5 40 905.0 600 0.0 8.3 30.0 349
14/08/2019 13:20 21.1 41 902.0 600 0.0 6.9 24.9 352
14/08/2019 13:30 20.9 41 885.0 600 0.0 6.9 24.7 352
14/08/2019 13:40 20.6 43 871.0 600 0.0 7.6 27.4 343
14/08/2019 13:50 21.3 43 862.0 600 0.0 7.7 27.6 345
14/08/2019 14:00 20.8 45 844.0 600 0.0 7.9 28.6 348
14/08/2019 14:10 21.3 43 828.0 600 0.0 8.4 30.1 347
14/08/2019 14:20 21.4 43 808.0 600 0.0 7.8 28.0 347
14/08/2019 14:30 21.6 46 788.7 600 0.0 8.4 30.2 338
14/08/2019 14:40 21.6 45 766.6 600 0.0 8.7 31.2 344
14/08/2019 14:50 21.1 45 405.0 372 0.0 8.7 31.3 346
14/08/2019 15:00 21.4 44 329.1 280 0.0 8.7 31.3 336
14/08/2019 15:10 21.1 45 387.8 238 0.0 8.3 29.9 345
14/08/2019 15:20 21.3 47 671.0 600 0.0 8.5 30.6 351
14/08/2019 15:30 21.7 46 620.6 592 0.0 7.9 28.5 3
14/08/2019 15:40 21.1 48 234.2 130 0.0 9.0 32.3 8
14/08/2019 15:50 20.3 50 589.5 600 0.0 9.0 32.4 6
14/08/2019 16:00 20.8 49 561.8 600 0.0 8.8 31.8 359
14/08/2019 16:10 20.8 48 531.9 600 0.0 9.3 33.3 2
14/08/2019 16:20 20.2 50 500.9 600 0.0 9.6 34.4 357
14/08/2019 16:30 19.8 51 469.4 600 0.0 10.7 38.4 351
14/08/2019 16:40 19.6 53 437.2 600 0.0 9.8 35.1 358
14/08/2019 16:50 19.4 53 405.0 600 0.0 9.8 35.1 358
14/08/2019 17:00 19.0 55 373.7 600 0.0 9.5 34.3 1
14/08/2019 17:10 19.5 56 336.4 600 0.0 9.6 34.6 355
14/08/2019 17:20 18.7 56 280.8 600 0.0 10.2 36.7 354
14/08/2019 17:30 18.6 57 279.5 600 0.0 10.0 36.1 1
14/08/2019 17:40 18.0 59 244.0 600 0.0 10.1 36.4 2
14/08/2019 17:50 18.2 59 205.5 600 0.0 9.6 34.4 7
14/08/2019 18:00 17.7 60 168.7 588 0.0 10.5 37.6 359
14/08/2019 18:10 17.8 60 83.2 234 0.0 10.0 36.1 3
14/08/2019 18:20 17.2 61 116.5 600 0.0 10.5 37.8 6
14/08/2019 18:30 16.9 62 89.9 600 0.0 10.6 38.3 2
14/08/2019 18:40 16.5 64 65.9 600 0.0 10.9 39.3 4
14/08/2019 18:50 16.7 66 45.6 600 0.0 10.9 39.2 4
14/08/2019 19:00 15.7 68 28.0 194 0.0 11.4 41.1 3
14/08/2019 19:10 15.2 71 7.9 0 0.0 11.4 41.1 10
14/08/2019 19:20 15.2 73 0.0 0 0.0 13.4 48.4 17
14/08/2019 19:30 14.8 74 0.0 0 0.0 14.9 53.5 19
14/08/2019 19:40 14.8 77 0.0 0 0.0 15.0 54.1 19
14/08/2019 19:50 14.4 77 0.0 0 0.0 14.3 51.5 17
14/08/2019 20:00 14.4 77 0.0 0 0.0 14.5 52.3 10
14/08/2019 20:10 15.0 79 0.0 0 0.0 14.3 51.5 8
14/08/2019 20:20 14.2 80 0.0 0 0.0 13.4 48.3 5
14/08/2019 20:30 13.7 82 0.0 0 0.0 13.5 48.5 2
14/08/2019 20:40 13.7 84 0.0 0 0.0 13.6 49.0 3
14/08/2019 20:50 12.9 92 0.0 0 0.0 11.8 42.6 357
14/08/2019 21:00 12.2 96 0.0 0 0.0 12.0 43.2 353
14/08/2019 21:10 11.9 99 0.0 0 0.0 13.1 47.2 358
14/08/2019 21:20 11.9 98 0.0 0 0.0 13.1 47.0 0
14/08/2019 21:30 12.7 97 0.0 0 0.0 13.4 48.2 4
14/08/2019 21:40 12.5 97 0.0 0 0.0 13.1 47.1 5
14/08/2019 21:50 12.1 96 0.0 0 0.0 14.2 51.0 9
14/08/2019 22:00 12.5 97 0.0 0 0.0 15.5 55.7 13
14/08/2019 22:10 12.6 96 0.0 0 0.0 14.8 53.1 11
14/08/2019 22:20 13.1 95 0.0 0 0.0 15.0 54.0 11
14/08/2019 22:30 13.5 94 0.0 0 0.0 15.6 56.1 8
14/08/2019 22:40 13.4 95 0.0 0 0.0 14.8 53.3 9
14/08/2019 22:50 13.4 95 0.0 0 0.0 15.0 53.9 12
14/08/2019 23:00 13.7 96 0.0 0 0.0 14.4 51.8 8
14/08/2019 23:10 13.1 96 0.0 0 0.0 13.5 48.6 6
14/08/2019 23:20 12.9 97 0.0 0 0.0 11.9 42.9 5
14/08/2019 23:30 12.7 98 0.0 0 0.0 11.7 42.0 11
14/08/2019 23:40 13.3 99 0.0 0 0.0 12.2 43.9 13
14/08/2019 23:50 12.7 99 0.0 0 0.0 12.3 44.4 14
Anterior Página 1 de 1 Siguiente
Los datos de precipitación registrados en estaciones que están en cumbres son inferiores a lo real, como consecuencia del efecto del viento y de la nieve.


NOTA: Tipo de datos según el color:
   - Valores diarios o 10 minutos correctos
   - Valores diarios calculados a partir de un número de datos 10 minutos menor que 144 y mayor que 120, o de un número de datos semihorarios menor que 48 y mayor que 40 (caso de las estaciones de Riegos de Navarra y del MARM)
   - Valores diez minutos estimados


Contacto        Enlaces        Aviso legal